University of Illinois Willard Airport
KCMI : now visible

Airfield :











YOU CAN JOIN US ON...

 
LOGIN :

Register | Disclaimer

   EN    FR    IT 

 









Legend :    VFR   Marginal VFR   IFR   Intensive IFR   Very Intensive IFR
Visi :
Ceiling :
>= 8 km
>= 3000ft
5 to 8 km
1000 to 3000 ft
1500m to 5 km
500 to 1000 ft
800 to 1500m
200 to 500 ft
< 800m
< 200 ft
Symbols :   Thunderstorms  Fog  Heavy snow  Heavy precipitations  Wind > 20 kt







- Airport Elevation : 755 ft
- IATA code : CMI


KCMI - University of Illinois Willard

CURRENT METAR :
  • 210353Z 21005KT 8SM CLR 22/19 A3015 RMK AO2 SLP203 T02170194

EXPIRED METARs :
  • 210253Z 19008KT 10SM FEW039 SCT045 23/19 A3015 RMK AO2 SLP204 T02280194 51017
  • 210153Z 18005KT 10SM CLR 23/19 A3014 RMK AO2 SLP199 T02330194

TAF KCMI
Valid from the 21 at 00:00 until the 22 at 00:00 UTC


202320Z 2100/2124 19005KT P6SM SKC
FM211400 20011KT P6SM SCT120
FM211700 20014G20KT P6SM BKN060
FM211900 20014G24KT P6SM BKN080
No reported NOTAMs for that airfield.



MET'MAP, your aeronautical weather chart ! - Copyright ORBIFLY December 2007 - Disclaimer

ORBIFLY MET'MAP TEAM :

Programming & Development : Alexandra Zaïnal
Concept & Development : Baudouin d'Aumeries
Co-Development & Prog : Marc-Olivier Méhu
Technical & hardware support : Manuel Goepfert

Contact : metmap@orbifly.com




SOURCES & CREDITS :

   NOAA       Earth
Advisory